sensor_id;sensor_type;location;lat;lon;timestamp;temperature;humidity
13245;DHT22;6689;53.400;12.486;2023-03-16T00:01:32;2.40;99.90
13245;DHT22;6689;53.400;12.486;2023-03-16T00:03:59;2.30;99.90
13245;DHT22;6689;53.400;12.486;2023-03-16T00:06:26;2.30;99.90
13245;DHT22;6689;53.400;12.486;2023-03-16T00:08:54;2.30;99.90
13245;DHT22;6689;53.400;12.486;2023-03-16T00:11:23;2.30;99.90
13245;DHT22;6689;53.400;12.486;2023-03-16T00:13:53;2.30;99.90
13245;DHT22;6689;53.400;12.486;2023-03-16T00:16:20;2.30;99.90
13245;DHT22;6689;53.400;12.486;2023-03-16T00:18:49;2.30;99.90
13245;DHT22;6689;53.400;12.486;2023-03-16T00:21:16;2.30;99.90
13245;DHT22;6689;53.400;12.486;2023-03-16T00:23:43;2.30;99.90
13245;DHT22;6689;53.400;12.486;2023-03-16T00:26:11;2.20;99.90
13245;DHT22;6689;53.400;12.486;2023-03-16T00:28:39;2.30;99.90
13245;DHT22;6689;53.400;12.486;2023-03-16T00:31:09;2.30;99.90
13245;DHT22;6689;53.400;12.486;2023-03-16T00:33:36;2.20;99.90
13245;DHT22;6689;53.400;12.486;2023-03-16T00:36:06;2.30;99.90
13245;DHT22;6689;53.400;12.486;2023-03-16T00:38:35;2.20;99.90
13245;DHT22;6689;53.400;12.486;2023-03-16T00:41:05;2.30;99.90
13245;DHT22;6689;53.400;12.486;2023-03-16T00:43:36;2.10;99.90
13245;DHT22;6689;53.400;12.486;2023-03-16T00:46:07;2.20;99.90
13245;DHT22;6689;53.400;12.486;2023-03-16T00:48:35;2.20;99.90
13245;DHT22;6689;53.400;12.486;2023-03-16T00:51:06;2.10;99.90
13245;DHT22;6689;53.400;12.486;2023-03-16T00:53:34;2.20;99.90
13245;DHT22;6689;53.400;12.486;2023-03-16T00:56:02;2.20;99.90
13245;DHT22;6689;53.400;12.486;2023-03-16T00:58:30;2.20;99.90
13245;DHT22;6689;53.400;12.486;2023-03-16T01:01:00;2.20;99.90
13245;DHT22;6689;53.400;12.486;2023-03-16T01:03:28;2.20;99.90
13245;DHT22;6689;53.400;12.486;2023-03-16T01:05:55;2.20;99.90
13245;DHT22;6689;53.400;12.486;2023-03-16T01:08:26;2.20;99.90
13245;DHT22;6689;53.400;12.486;2023-03-16T01:10:54;2.10;99.90
13245;DHT22;6689;53.400;12.486;2023-03-16T01:13:22;2.20;99.90
13245;DHT22;6689;53.400;12.486;2023-03-16T01:15:50;2.10;99.90
13245;DHT22;6689;53.400;12.486;2023-03-16T01:18:17;2.10;99.90
13245;DHT22;6689;53.400;12.486;2023-03-16T01:20:45;2.00;99.90
13245;DHT22;6689;53.400;12.486;2023-03-16T01:23:15;2.00;99.90
13245;DHT22;6689;53.400;12.486;2023-03-16T01:25:45;2.00;99.90
13245;DHT22;6689;53.400;12.486;2023-03-16T01:28:22;2.00;99.90
13245;DHT22;6689;53.400;12.486;2023-03-16T01:30:50;2.00;99.90
13245;DHT22;6689;53.400;12.486;2023-03-16T01:33:18;2.00;99.90
13245;DHT22;6689;53.400;12.486;2023-03-16T01:35:51;2.00;99.90
13245;DHT22;6689;53.400;12.486;2023-03-16T01:38:19;2.00;99.90
13245;DHT22;6689;53.400;12.486;2023-03-16T01:40:48;2.00;99.90
13245;DHT22;6689;53.400;12.486;2023-03-16T01:43:17;2.00;99.90
13245;DHT22;6689;53.400;12.486;2023-03-16T01:46:17;2.00;99.90
13245;DHT22;6689;53.400;12.486;2023-03-16T01:48:49;2.00;99.90
13245;DHT22;6689;53.400;12.486;2023-03-16T01:51:19;1.90;99.90
13245;DHT22;6689;53.400;12.486;2023-03-16T01:53:51;1.90;99.90
13245;DHT22;6689;53.400;12.486;2023-03-16T01:56:25;1.90;99.90
13245;DHT22;6689;53.400;12.486;2023-03-16T01:58:55;1.90;99.90
13245;DHT22;6689;53.400;12.486;2023-03-16T02:01:24;1.90;99.90
13245;DHT22;6689;53.400;12.486;2023-03-16T02:03:56;1.90;99.90
13245;DHT22;6689;53.400;12.486;2023-03-16T02:06:26;1.90;99.90
13245;DHT22;6689;53.400;12.486;2023-03-16T02:08:55;1.90;99.90
13245;DHT22;6689;53.400;12.486;2023-03-16T02:11:24;1.90;99.90
13245;DHT22;6689;53.400;12.486;2023-03-16T02:13:52;1.90;99.90
13245;DHT22;6689;53.400;12.486;2023-03-16T02:16:21;2.00;99.90
13245;DHT22;6689;53.400;12.486;2023-03-16T02:18:49;2.00;99.90
13245;DHT22;6689;53.400;12.486;2023-03-16T02:21:21;2.00;99.90
13245;DHT22;6689;53.400;12.486;2023-03-16T02:23:54;2.00;99.90
13245;DHT22;6689;53.400;12.486;2023-03-16T02:26:27;2.00;99.90
13245;DHT22;6689;53.400;12.486;2023-03-16T02:29:08;2.00;99.90
13245;DHT22;6689;53.400;12.486;2023-03-16T02:31:40;2.00;99.90
13245;DHT22;6689;53.400;12.486;2023-03-16T02:34:07;1.90;99.90
13245;DHT22;6689;53.400;12.486;2023-03-16T02:36:36;2.00;99.90
13245;DHT22;6689;53.400;12.486;2023-03-16T02:39:03;2.00;99.90
13245;DHT22;6689;53.400;12.486;2023-03-16T02:41:31;2.00;99.90
13245;DHT22;6689;53.400;12.486;2023-03-16T02:44:02;2.00;99.90
13245;DHT22;6689;53.400;12.486;2023-03-16T02:46:30;2.10;99.90
13245;DHT22;6689;53.400;12.486;2023-03-16T02:49:06;1.90;99.90
13245;DHT22;6689;53.400;12.486;2023-03-16T02:51:34;1.90;99.90
13245;DHT22;6689;53.400;12.486;2023-03-16T02:54:01;1.90;99.90
13245;DHT22;6689;53.400;12.486;2023-03-16T02:56:29;1.90;99.90
13245;DHT22;6689;53.400;12.486;2023-03-16T02:58:56;1.90;99.90
13245;DHT22;6689;53.400;12.486;2023-03-16T03:01:24;2.00;99.90
13245;DHT22;6689;53.400;12.486;2023-03-16T03:03:51;2.00;99.90
13245;DHT22;6689;53.400;12.486;2023-03-16T03:06:20;2.00;99.90
13245;DHT22;6689;53.400;12.486;2023-03-16T03:08:47;2.10;99.90
13245;DHT22;6689;53.400;12.486;2023-03-16T03:11:14;1.90;99.90
13245;DHT22;6689;53.400;12.486;2023-03-16T03:13:43;1.90;99.90
13245;DHT22;6689;53.400;12.486;2023-03-16T03:16:10;1.90;99.90
13245;DHT22;6689;53.400;12.486;2023-03-16T03:18:40;1.90;99.90
13245;DHT22;6689;53.400;12.486;2023-03-16T03:21:08;1.80;99.90
13245;DHT22;6689;53.400;12.486;2023-03-16T03:23:37;1.80;99.90
13245;DHT22;6689;53.400;12.486;2023-03-16T03:26:04;1.90;99.90
13245;DHT22;6689;53.400;12.486;2023-03-16T03:28:31;1.80;99.90
13245;DHT22;6689;53.400;12.486;2023-03-16T03:30:59;1.80;99.90
13245;DHT22;6689;53.400;12.486;2023-03-16T03:33:28;1.90;99.90
13245;DHT22;6689;53.400;12.486;2023-03-16T03:35:58;1.80;99.90
13245;DHT22;6689;53.400;12.486;2023-03-16T03:38:26;1.80;99.90
13245;DHT22;6689;53.400;12.486;2023-03-16T03:40:55;1.80;99.90
13245;DHT22;6689;53.400;12.486;2023-03-16T03:43:25;1.70;99.90
13245;DHT22;6689;53.400;12.486;2023-03-16T03:45:55;1.80;99.90
13245;DHT22;6689;53.400;12.486;2023-03-16T03:48:23;1.80;99.90
13245;DHT22;6689;53.400;12.486;2023-03-16T03:50:51;1.80;99.90
13245;DHT22;6689;53.400;12.486;2023-03-16T03:53:19;1.70;99.90
13245;DHT22;6689;53.400;12.486;2023-03-16T03:55:46;1.70;99.90
13245;DHT22;6689;53.400;12.486;2023-03-16T03:58:16;1.70;99.90
13245;DHT22;6689;53.400;12.486;2023-03-16T04:00:44;1.70;99.90
13245;DHT22;6689;53.400;12.486;2023-03-16T04:03:11;1.60;99.90
13245;DHT22;6689;53.400;12.486;2023-03-16T04:05:39;1.70;99.90
13245;DHT22;6689;53.400;12.486;2023-03-16T04:08:06;1.60;99.90
13245;DHT22;6689;53.400;12.486;2023-03-16T04:10:33;1.60;99.90
13245;DHT22;6689;53.400;12.486;2023-03-16T04:13:00;1.60;99.90
13245;DHT22;6689;53.400;12.486;2023-03-16T04:15:29;1.60;99.90
13245;DHT22;6689;53.400;12.486;2023-03-16T04:17:57;1.60;99.90
13245;DHT22;6689;53.400;12.486;2023-03-16T04:20:25;1.60;99.90
13245;DHT22;6689;53.400;12.486;2023-03-16T04:22:54;1.60;99.90
13245;DHT22;6689;53.400;12.486;2023-03-16T04:25:24;1.60;99.90
13245;DHT22;6689;53.400;12.486;2023-03-16T04:27:52;1.50;99.90
13245;DHT22;6689;53.400;12.486;2023-03-16T04:30:20;1.50;99.90
13245;DHT22;6689;53.400;12.486;2023-03-16T04:32:50;1.50;99.90
13245;DHT22;6689;53.400;12.486;2023-03-16T04:35:18;1.50;99.90
13245;DHT22;6689;53.400;12.486;2023-03-16T04:37:45;1.40;99.90
13245;DHT22;6689;53.400;12.486;2023-03-16T04:40:13;1.40;99.90
13245;DHT22;6689;53.400;12.486;2023-03-16T04:42:44;1.30;99.90
13245;DHT22;6689;53.400;12.486;2023-03-16T04:45:13;1.30;99.90
13245;DHT22;6689;53.400;12.486;2023-03-16T04:47:40;1.20;99.90
13245;DHT22;6689;53.400;12.486;2023-03-16T04:50:10;1.30;99.90
13245;DHT22;6689;53.400;12.486;2023-03-16T04:52:38;1.30;99.90
13245;DHT22;6689;53.400;12.486;2023-03-16T04:55:06;1.30;99.90
13245;DHT22;6689;53.400;12.486;2023-03-16T04:57:33;1.20;99.90
13245;DHT22;6689;53.400;12.486;2023-03-16T05:00:01;1.20;99.90
13245;DHT22;6689;53.400;12.486;2023-03-16T05:02:34;1.20;99.90
13245;DHT22;6689;53.400;12.486;2023-03-16T05:05:02;1.20;99.90
13245;DHT22;6689;53.400;12.486;2023-03-16T05:07:33;1.10;99.90
13245;DHT22;6689;53.400;12.486;2023-03-16T05:10:00;1.10;99.90
13245;DHT22;6689;53.400;12.486;2023-03-16T05:12:27;1.20;99.90
13245;DHT22;6689;53.400;12.486;2023-03-16T05:14:54;1.00;99.90
13245;DHT22;6689;53.400;12.486;2023-03-16T05:17:22;0.90;99.90
13245;DHT22;6689;53.400;12.486;2023-03-16T05:19:49;0.90;99.90
13245;DHT22;6689;53.400;12.486;2023-03-16T05:22:16;0.80;99.90
13245;DHT22;6689;53.400;12.486;2023-03-16T05:24:45;0.80;99.90
13245;DHT22;6689;53.400;12.486;2023-03-16T05:27:12;0.80;99.90
13245;DHT22;6689;53.400;12.486;2023-03-16T05:29:40;0.80;99.90
13245;DHT22;6689;53.400;12.486;2023-03-16T05:32:10;0.70;99.90
13245;DHT22;6689;53.400;12.486;2023-03-16T05:34:39;0.80;99.90
13245;DHT22;6689;53.400;12.486;2023-03-16T05:37:08;0.80;99.90
13245;DHT22;6689;53.400;12.486;2023-03-16T05:39:35;0.80;99.90
13245;DHT22;6689;53.400;12.486;2023-03-16T05:42:04;0.80;99.90
13245;DHT22;6689;53.400;12.486;2023-03-16T05:44:32;0.80;99.90
13245;DHT22;6689;53.400;12.486;2023-03-16T05:46:59;0.80;99.90
13245;DHT22;6689;53.400;12.486;2023-03-16T05:49:26;0.90;99.90
13245;DHT22;6689;53.400;12.486;2023-03-16T05:51:54;0.90;99.90
13245;DHT22;6689;53.400;12.486;2023-03-16T05:54:21;0.90;99.90
13245;DHT22;6689;53.400;12.486;2023-03-16T05:56:49;0.90;99.90
13245;DHT22;6689;53.400;12.486;2023-03-16T05:59:17;1.00;99.90
13245;DHT22;6689;53.400;12.486;2023-03-16T06:01:45;1.00;99.90
13245;DHT22;6689;53.400;12.486;2023-03-16T06:04:14;1.00;99.90
13245;DHT22;6689;53.400;12.486;2023-03-16T06:06:41;1.00;99.90
13245;DHT22;6689;53.400;12.486;2023-03-16T06:09:08;1.00;99.90
13245;DHT22;6689;53.400;12.486;2023-03-16T06:11:36;1.00;99.90
13245;DHT22;6689;53.400;12.486;2023-03-16T06:14:03;1.00;99.90
13245;DHT22;6689;53.400;12.486;2023-03-16T06:16:31;1.10;99.90
13245;DHT22;6689;53.400;12.486;2023-03-16T06:18:59;1.10;99.90
13245;DHT22;6689;53.400;12.486;2023-03-16T06:21:26;1.20;99.90
13245;DHT22;6689;53.400;12.486;2023-03-16T06:23:53;1.20;99.90
13245;DHT22;6689;53.400;12.486;2023-03-16T06:26:20;1.30;99.90
13245;DHT22;6689;53.400;12.486;2023-03-16T06:28:48;1.30;99.90
13245;DHT22;6689;53.400;12.486;2023-03-16T06:31:15;1.40;99.90
13245;DHT22;6689;53.400;12.486;2023-03-16T06:33:43;1.40;99.90
13245;DHT22;6689;53.400;12.486;2023-03-16T06:36:11;1.40;99.90
13245;DHT22;6689;53.400;12.486;2023-03-16T06:38:39;1.50;99.90
13245;DHT22;6689;53.400;12.486;2023-03-16T06:41:06;1.60;99.90
13245;DHT22;6689;53.400;12.486;2023-03-16T06:43:33;1.80;99.90
13245;DHT22;6689;53.400;12.486;2023-03-16T06:46:01;2.00;99.90
13245;DHT22;6689;53.400;12.486;2023-03-16T06:48:29;2.00;99.90
13245;DHT22;6689;53.400;12.486;2023-03-16T06:51:00;2.20;99.90
13245;DHT22;6689;53.400;12.486;2023-03-16T06:53:27;2.50;99.90
13245;DHT22;6689;53.400;12.486;2023-03-16T06:55:54;2.80;99.90
13245;DHT22;6689;53.400;12.486;2023-03-16T06:58:22;3.10;99.90
13245;DHT22;6689;53.400;12.486;2023-03-16T07:00:49;3.40;99.90
13245;DHT22;6689;53.400;12.486;2023-03-16T07:03:18;3.70;99.90
13245;DHT22;6689;53.400;12.486;2023-03-16T07:05:46;4.10;99.90
13245;DHT22;6689;53.400;12.486;2023-03-16T07:08:15;4.50;99.90
13245;DHT22;6689;53.400;12.486;2023-03-16T07:10:42;4.90;99.90
13245;DHT22;6689;53.400;12.486;2023-03-16T07:13:09;5.30;99.90
13245;DHT22;6689;53.400;12.486;2023-03-16T07:15:37;5.70;99.90
13245;DHT22;6689;53.400;12.486;2023-03-16T07:18:04;6.20;99.90
13245;DHT22;6689;53.400;12.486;2023-03-16T07:20:32;6.60;99.90
13245;DHT22;6689;53.400;12.486;2023-03-16T07:22:59;7.20;99.90
13245;DHT22;6689;53.400;12.486;2023-03-16T07:25:28;7.70;99.90
13245;DHT22;6689;53.400;12.486;2023-03-16T07:27:56;8.40;55.10
13245;DHT22;6689;53.400;12.486;2023-03-16T07:30:23;9.40;26.10
13245;DHT22;6689;53.400;12.486;2023-03-16T07:32:51;10.40;1.00
13245;DHT22;6689;53.400;12.486;2023-03-16T07:35:19;11.50;1.00
13245;DHT22;6689;53.400;12.486;2023-03-16T07:37:46;12.90;1.00
13245;DHT22;6689;53.400;12.486;2023-03-16T07:40:14;14.40;1.00
13245;DHT22;6689;53.400;12.486;2023-03-16T07:42:43;16.00;1.00
13245;DHT22;6689;53.400;12.486;2023-03-16T07:45:11;17.50;1.00
13245;DHT22;6689;53.400;12.486;2023-03-16T07:47:39;18.50;1.00
13245;DHT22;6689;53.400;12.486;2023-03-16T07:50:07;19.30;1.00
13245;DHT22;6689;53.400;12.486;2023-03-16T07:52:37;20.10;1.00
13245;DHT22;6689;53.400;12.486;2023-03-16T07:55:06;20.90;1.00
13245;DHT22;6689;53.400;12.486;2023-03-16T07:57:33;21.50;1.00
13245;DHT22;6689;53.400;12.486;2023-03-16T08:00:03;22.20;1.00
13245;DHT22;6689;53.400;12.486;2023-03-16T08:02:31;22.90;1.00
13245;DHT22;6689;53.400;12.486;2023-03-16T08:04:59;23.20;1.00
13245;DHT22;6689;53.400;12.486;2023-03-16T08:07:26;23.80;1.00
13245;DHT22;6689;53.400;12.486;2023-03-16T08:09:53;24.50;1.00
13245;DHT22;6689;53.400;12.486;2023-03-16T08:12:21;24.80;1.40
13245;DHT22;6689;53.400;12.486;2023-03-16T08:14:48;25.20;99.90
13245;DHT22;6689;53.400;12.486;2023-03-16T08:17:17;25.20;99.90
13245;DHT22;6689;53.400;12.486;2023-03-16T08:19:44;25.40;99.90
13245;DHT22;6689;53.400;12.486;2023-03-16T08:22:12;25.80;99.90
13245;DHT22;6689;53.400;12.486;2023-03-16T08:24:39;26.10;99.90
13245;DHT22;6689;53.400;12.486;2023-03-16T08:27:07;26.20;99.90
13245;DHT22;6689;53.400;12.486;2023-03-16T08:29:34;25.90;99.90
13245;DHT22;6689;53.400;12.486;2023-03-16T08:32:02;25.00;99.90
13245;DHT22;6689;53.400;12.486;2023-03-16T08:34:31;25.10;99.90
13245;DHT22;6689;53.400;12.486;2023-03-16T08:36:58;25.20;99.90
13245;DHT22;6689;53.400;12.486;2023-03-16T08:39:26;25.50;99.90
13245;DHT22;6689;53.400;12.486;2023-03-16T08:41:53;26.00;99.90
13245;DHT22;6689;53.400;12.486;2023-03-16T08:44:21;26.10;99.90
13245;DHT22;6689;53.400;12.486;2023-03-16T08:46:51;26.10;99.90
13245;DHT22;6689;53.400;12.486;2023-03-16T08:49:19;26.10;99.90
13245;DHT22;6689;53.400;12.486;2023-03-16T08:51:48;25.80;99.90
13245;DHT22;6689;53.400;12.486;2023-03-16T08:54:15;26.20;99.90
13245;DHT22;6689;53.400;12.486;2023-03-16T08:56:43;25.60;99.90
13245;DHT22;6689;53.400;12.486;2023-03-16T08:59:10;25.20;99.90
13245;DHT22;6689;53.400;12.486;2023-03-16T09:01:38;22.60;1.00
13245;DHT22;6689;53.400;12.486;2023-03-16T09:04:06;19.40;1.00
13245;DHT22;6689;53.400;12.486;2023-03-16T09:06:33;17.20;1.00
13245;DHT22;6689;53.400;12.486;2023-03-16T09:09:02;16.00;1.00
13245;DHT22;6689;53.400;12.486;2023-03-16T09:11:29;14.90;1.00
13245;DHT22;6689;53.400;12.486;2023-03-16T09:13:58;13.90;1.00
13245;DHT22;6689;53.400;12.486;2023-03-16T09:16:26;13.10;1.00
13245;DHT22;6689;53.400;12.486;2023-03-16T09:18:55;12.50;1.00
13245;DHT22;6689;53.400;12.486;2023-03-16T09:21:23;11.50;1.00
13245;DHT22;6689;53.400;12.486;2023-03-16T09:23:50;11.30;1.00
13245;DHT22;6689;53.400;12.486;2023-03-16T09:26:20;11.00;1.00
13245;DHT22;6689;53.400;12.486;2023-03-16T09:28:50;10.90;1.00
13245;DHT22;6689;53.400;12.486;2023-03-16T09:31:19;10.10;1.00
13245;DHT22;6689;53.400;12.486;2023-03-16T09:33:47;10.30;1.00
13245;DHT22;6689;53.400;12.486;2023-03-16T09:36:15;10.30;1.00
13245;DHT22;6689;53.400;12.486;2023-03-16T09:38:43;10.40;1.00
13245;DHT22;6689;53.400;12.486;2023-03-16T09:44:12;10.40;1.00
13245;DHT22;6689;53.400;12.486;2023-03-16T09:46:44;10.40;1.00
13245;DHT22;6689;53.400;12.486;2023-03-16T09:49:16;10.40;1.00
13245;DHT22;6689;53.400;12.486;2023-03-16T09:51:47;10.40;1.00
13245;DHT22;6689;53.400;12.486;2023-03-16T09:54:23;10.40;1.00
13245;DHT22;6689;53.400;12.486;2023-03-16T09:56:54;10.40;1.00
13245;DHT22;6689;53.400;12.486;2023-03-16T09:59:24;10.60;1.00
13245;DHT22;6689;53.400;12.486;2023-03-16T10:02:03;10.60;1.00
13245;DHT22;6689;53.400;12.486;2023-03-16T10:04:40;10.60;1.00
13245;DHT22;6689;53.400;12.486;2023-03-16T10:07:18;10.70;1.00
13245;DHT22;6689;53.400;12.486;2023-03-16T10:09:55;10.80;1.00
13245;DHT22;6689;53.400;12.486;2023-03-16T10:12:25;10.90;1.00
13245;DHT22;6689;53.400;12.486;2023-03-16T10:15:01;11.00;1.00
13245;DHT22;6689;53.400;12.486;2023-03-16T10:17:34;11.00;1.00
13245;DHT22;6689;53.400;12.486;2023-03-16T10:20:05;11.00;1.00
13245;DHT22;6689;53.400;12.486;2023-03-16T10:22:36;11.10;1.00
13245;DHT22;6689;53.400;12.486;2023-03-16T10:25:08;11.20;1.00
13245;DHT22;6689;53.400;12.486;2023-03-16T10:27:39;11.30;1.00
13245;DHT22;6689;53.400;12.486;2023-03-16T10:30:20;11.40;1.00
13245;DHT22;6689;53.400;12.486;2023-03-16T10:32:48;11.40;1.00
13245;DHT22;6689;53.400;12.486;2023-03-16T10:35:26;11.40;1.00
13245;DHT22;6689;53.400;12.486;2023-03-16T10:37:55;11.50;1.00
13245;DHT22;6689;53.400;12.486;2023-03-16T10:40:23;11.50;1.00
13245;DHT22;6689;53.400;12.486;2023-03-16T10:42:51;11.50;1.00
13245;DHT22;6689;53.400;12.486;2023-03-16T10:45:34;11.50;1.00
13245;DHT22;6689;53.400;12.486;2023-03-16T10:48:06;11.60;1.00
13245;DHT22;6689;53.400;12.486;2023-03-16T10:50:34;11.60;1.00
13245;DHT22;6689;53.400;12.486;2023-03-16T10:53:02;11.60;1.00
13245;DHT22;6689;53.400;12.486;2023-03-16T10:55:39;11.70;1.00
13245;DHT22;6689;53.400;12.486;2023-03-16T10:58:07;11.60;1.00
13245;DHT22;6689;53.400;12.486;2023-03-16T11:00:40;11.70;1.00
13245;DHT22;6689;53.400;12.486;2023-03-16T11:03:18;11.80;1.00
13245;DHT22;6689;53.400;12.486;2023-03-16T11:05:54;11.90;1.00
13245;DHT22;6689;53.400;12.486;2023-03-16T11:08:24;11.90;1.00
13245;DHT22;6689;53.400;12.486;2023-03-16T11:10:57;11.90;1.00
13245;DHT22;6689;53.400;12.486;2023-03-16T11:13:31;12.00;1.00
13245;DHT22;6689;53.400;12.486;2023-03-16T11:16:04;12.10;1.00
13245;DHT22;6689;53.400;12.486;2023-03-16T11:18:37;12.00;1.00
13245;DHT22;6689;53.400;12.486;2023-03-16T11:21:14;12.10;1.00
13245;DHT22;6689;53.400;12.486;2023-03-16T11:23:46;12.10;1.00
13245;DHT22;6689;53.400;12.486;2023-03-16T11:26:20;12.20;1.00
13245;DHT22;6689;53.400;12.486;2023-03-16T11:28:53;12.20;1.00
13245;DHT22;6689;53.400;12.486;2023-03-16T11:31:38;12.20;1.00
13245;DHT22;6689;53.400;12.486;2023-03-16T11:34:13;12.40;1.00
13245;DHT22;6689;53.400;12.486;2023-03-16T11:36:49;12.50;1.00
13245;DHT22;6689;53.400;12.486;2023-03-16T11:39:37;12.50;1.00
13245;DHT22;6689;53.400;12.486;2023-03-16T11:45:16;12.40;1.00
13245;DHT22;6689;53.400;12.486;2023-03-16T11:48:18;12.50;1.00
13245;DHT22;6689;53.400;12.486;2023-03-16T11:50:56;12.70;1.00
13245;DHT22;6689;53.400;12.486;2023-03-16T11:53:31;12.60;1.00
13245;DHT22;6689;53.400;12.486;2023-03-16T11:56:09;12.70;1.00
13245;DHT22;6689;53.400;12.486;2023-03-16T11:58:49;12.70;1.00
13245;DHT22;6689;53.400;12.486;2023-03-16T12:01:24;12.80;1.00
13245;DHT22;6689;53.400;12.486;2023-03-16T12:04:05;13.00;1.00
13245;DHT22;6689;53.400;12.486;2023-03-16T12:06:42;12.90;1.00
13245;DHT22;6689;53.400;12.486;2023-03-16T12:09:28;13.00;1.00
13245;DHT22;6689;53.400;12.486;2023-03-16T12:12:11;13.10;1.00
13245;DHT22;6689;53.400;12.486;2023-03-16T12:14:43;13.00;1.00
13245;DHT22;6689;53.400;12.486;2023-03-16T12:17:15;13.00;1.00
13245;DHT22;6689;53.400;12.486;2023-03-16T12:19:50;13.00;1.00
13245;DHT22;6689;53.400;12.486;2023-03-16T12:22:20;13.00;1.00
13245;DHT22;6689;53.400;12.486;2023-03-16T12:24:48;13.00;1.00
13245;DHT22;6689;53.400;12.486;2023-03-16T12:27:19;12.90;1.00
13245;DHT22;6689;53.400;12.486;2023-03-16T12:29:56;13.00;1.00
13245;DHT22;6689;53.400;12.486;2023-03-16T12:32:27;13.00;1.00
13245;DHT22;6689;53.400;12.486;2023-03-16T12:35:03;13.00;1.00
13245;DHT22;6689;53.400;12.486;2023-03-16T12:37:37;12.70;1.00
13245;DHT22;6689;53.400;12.486;2023-03-16T12:40:19;12.80;1.00
13245;DHT22;6689;53.400;12.486;2023-03-16T12:42:59;13.00;1.00
13245;DHT22;6689;53.400;12.486;2023-03-16T12:45:34;13.10;1.00
13245;DHT22;6689;53.400;12.486;2023-03-16T12:48:13;13.10;1.00
13245;DHT22;6689;53.400;12.486;2023-03-16T12:50:51;13.10;1.00
13245;DHT22;6689;53.400;12.486;2023-03-16T12:53:27;13.10;1.00
13245;DHT22;6689;53.400;12.486;2023-03-16T12:55:55;13.10;1.00
13245;DHT22;6689;53.400;12.486;2023-03-16T12:58:23;13.00;1.00
13245;DHT22;6689;53.400;12.486;2023-03-16T13:00:56;12.90;1.00
13245;DHT22;6689;53.400;12.486;2023-03-16T13:03:24;12.90;1.00
13245;DHT22;6689;53.400;12.486;2023-03-16T13:05:55;13.00;1.00
13245;DHT22;6689;53.400;12.486;2023-03-16T13:08:24;12.90;1.00
13245;DHT22;6689;53.400;12.486;2023-03-16T13:11:00;13.00;1.00
13245;DHT22;6689;53.400;12.486;2023-03-16T13:13:28;12.90;1.00
13245;DHT22;6689;53.400;12.486;2023-03-16T13:16:04;12.90;1.00
13245;DHT22;6689;53.400;12.486;2023-03-16T13:18:35;12.90;1.00
13245;DHT22;6689;53.400;12.486;2023-03-16T13:21:18;12.80;1.00
13245;DHT22;6689;53.400;12.486;2023-03-16T13:23:52;12.90;1.00
13245;DHT22;6689;53.400;12.486;2023-03-16T13:26:39;12.80;1.00
13245;DHT22;6689;53.400;12.486;2023-03-16T13:29:24;12.80;1.00
13245;DHT22;6689;53.400;12.486;2023-03-16T13:31:53;12.70;1.00
13245;DHT22;6689;53.400;12.486;2023-03-16T13:34:22;12.70;1.00
13245;DHT22;6689;53.400;12.486;2023-03-16T13:36:54;12.70;1.00
13245;DHT22;6689;53.400;12.486;2023-03-16T13:39:24;12.60;1.00
13245;DHT22;6689;53.400;12.486;2023-03-16T13:42:02;12.70;1.00
13245;DHT22;6689;53.400;12.486;2023-03-16T13:44:30;12.70;1.00
13245;DHT22;6689;53.400;12.486;2023-03-16T13:47:03;12.70;1.00
13245;DHT22;6689;53.400;12.486;2023-03-16T13:49:32;12.50;1.00
13245;DHT22;6689;53.400;12.486;2023-03-16T13:52:01;12.10;1.00
13245;DHT22;6689;53.400;12.486;2023-03-16T13:54:30;12.40;1.00
13245;DHT22;6689;53.400;12.486;2023-03-16T13:57:01;12.30;1.00
13245;DHT22;6689;53.400;12.486;2023-03-16T13:59:31;12.40;1.00
13245;DHT22;6689;53.400;12.486;2023-03-16T14:01:59;12.30;1.00
13245;DHT22;6689;53.400;12.486;2023-03-16T14:04:29;12.40;1.00
13245;DHT22;6689;53.400;12.486;2023-03-16T14:07:00;12.50;1.00
13245;DHT22;6689;53.400;12.486;2023-03-16T14:09:30;12.40;1.00
13245;DHT22;6689;53.400;12.486;2023-03-16T14:11:59;12.40;1.00
13245;DHT22;6689;53.400;12.486;2023-03-16T14:14:29;12.30;1.00
13245;DHT22;6689;53.400;12.486;2023-03-16T14:17:07;12.40;1.00
13245;DHT22;6689;53.400;12.486;2023-03-16T14:19:39;12.40;1.00
13245;DHT22;6689;53.400;12.486;2023-03-16T14:22:17;12.30;1.00
13245;DHT22;6689;53.400;12.486;2023-03-16T14:24:50;12.20;1.00
13245;DHT22;6689;53.400;12.486;2023-03-16T14:27:27;12.20;1.00
13245;DHT22;6689;53.400;12.486;2023-03-16T14:30:01;12.00;1.00
13245;DHT22;6689;53.400;12.486;2023-03-16T14:32:31;12.10;1.00
13245;DHT22;6689;53.400;12.486;2023-03-16T14:35:13;12.10;1.00
13245;DHT22;6689;53.400;12.486;2023-03-16T14:37:43;12.10;1.00
13245;DHT22;6689;53.400;12.486;2023-03-16T14:40:22;12.10;1.00
13245;DHT22;6689;53.400;12.486;2023-03-16T14:42:51;12.00;1.00
13245;DHT22;6689;53.400;12.486;2023-03-16T14:45:20;11.90;1.00
13245;DHT22;6689;53.400;12.486;2023-03-16T14:47:49;11.80;1.00
13245;DHT22;6689;53.400;12.486;2023-03-16T14:50:22;11.70;1.00
13245;DHT22;6689;53.400;12.486;2023-03-16T14:52:53;11.70;1.00
13245;DHT22;6689;53.400;12.486;2023-03-16T14:55:22;11.40;1.00
13245;DHT22;6689;53.400;12.486;2023-03-16T14:57:50;11.40;1.00
13245;DHT22;6689;53.400;12.486;2023-03-16T15:00:19;11.40;1.00
13245;DHT22;6689;53.400;12.486;2023-03-16T15:02:55;11.40;1.00
13245;DHT22;6689;53.400;12.486;2023-03-16T15:05:29;11.40;1.00
13245;DHT22;6689;53.400;12.486;2023-03-16T15:07:58;11.30;1.00
13245;DHT22;6689;53.400;12.486;2023-03-16T15:10:27;11.20;1.00
13245;DHT22;6689;53.400;12.486;2023-03-16T15:12:55;11.20;1.00
13245;DHT22;6689;53.400;12.486;2023-03-16T15:15:29;11.10;1.00
13245;DHT22;6689;53.400;12.486;2023-03-16T15:17:57;11.10;1.00
13245;DHT22;6689;53.400;12.486;2023-03-16T15:20:28;11.20;1.00
13245;DHT22;6689;53.400;12.486;2023-03-16T15:22:59;11.10;1.00
13245;DHT22;6689;53.400;12.486;2023-03-16T15:25:31;11.10;1.00
13245;DHT22;6689;53.400;12.486;2023-03-16T15:28:03;11.10;1.00
13245;DHT22;6689;53.400;12.486;2023-03-16T15:30:36;11.00;1.00
13245;DHT22;6689;53.400;12.486;2023-03-16T15:33:04;11.00;1.00
13245;DHT22;6689;53.400;12.486;2023-03-16T15:35:31;10.90;1.00
13245;DHT22;6689;53.400;12.486;2023-03-16T15:38:03;10.90;1.00
13245;DHT22;6689;53.400;12.486;2023-03-16T15:40:40;10.90;1.00
13245;DHT22;6689;53.400;12.486;2023-03-16T15:43:10;10.90;1.00
13245;DHT22;6689;53.400;12.486;2023-03-16T15:45:37;10.80;1.00
13245;DHT22;6689;53.400;12.486;2023-03-16T15:48:05;10.90;1.00
13245;DHT22;6689;53.400;12.486;2023-03-16T15:50:32;11.00;1.00
13245;DHT22;6689;53.400;12.486;2023-03-16T15:53:05;10.90;1.00
13245;DHT22;6689;53.400;12.486;2023-03-16T15:55:35;10.80;1.00
13245;DHT22;6689;53.400;12.486;2023-03-16T15:58:05;10.70;1.00
13245;DHT22;6689;53.400;12.486;2023-03-16T16:00:34;10.70;1.00
13245;DHT22;6689;53.400;12.486;2023-03-16T16:03:04;10.70;1.00
13245;DHT22;6689;53.400;12.486;2023-03-16T16:05:32;10.70;1.00
13245;DHT22;6689;53.400;12.486;2023-03-16T16:08:02;10.70;1.00
13245;DHT22;6689;53.400;12.486;2023-03-16T16:10:30;10.60;1.00